Flight Track Log - Related Links

Times and Time Zones

All times are in EDT time to prevent confusion due to time zone crossing. See the FLG3757 flight status page for this flight to view local times or setup timezone preferences in your user account.

Time Position Orientation Groundspeed Altitude Reporting Facility
EDT Latitude Longitude Course Direction KTS MPH feet Rate Location/Type
Sun 06:18:19 AM 42.1578 -75.9572 294° West 172 198 3,000  Level New York Center
Sun 06:19:11 AM 42.1283 -75.9800 210° Southwest 185 213 4,500 1,982 Climbing Cleveland Center
Sun 06:20:11 AM 42.1464 -76.0656 286° West 255 293 6,700 2,380 Climbing Cleveland Center
Sun 06:21:12 AM 42.1756 -76.1558 294° West 257 296 9,300 2,361 Climbing Cleveland Center
Sun 06:22:13 AM 42.2044 -76.2486 293° West 268 308 11,500 1,835 Climbing Cleveland Center
Sun 06:23:00 AM 42.3611 -76.5498 294° West  Level FlightAware Approximate
Sun 06:23:13 AM 42.2369 -76.3561 292° West 305 351 13,000  Level Cleveland Center
Sun 06:24:14 AM 42.2717 -76.4683 293° West 323 372 14,500 1,475 Climbing Cleveland Center
Sun 06:25:15 AM 42.3100 -76.5892 293° West 342 394 16,000 1,388 Climbing Cleveland Center
Sun 06:26:15 AM 42.3489 -76.7117 293° West 353 406 17,300 1,041 Climbing Cleveland Center
Sun 06:27:16 AM 42.3875 -76.8381 293° West 363 418 18,100 984 Climbing Cleveland Center
Sun 06:28:17 AM 42.4356 -76.9933 293° West 372 428 19,300 1,091 Climbing Cleveland Center
Sun 06:29:17 AM 42.4758 -77.1247 293° West 375 432 20,300 992 Climbing Cleveland Center
Sun 06:30:18 AM 42.5167 -77.2589 292° West 382 440 21,300 934 Climbing Cleveland Center
Sun 06:31:19 AM 42.5575 -77.3925 293° West 383 441 22,200 843 Climbing Cleveland Center
Sun 06:32:19 AM 42.6000 -77.5328 292° West 388 447 23,000 793 Climbing Cleveland Center
Sun 06:33:20 AM 42.6128 -77.6825 277° West 402 463 23,800 738 Climbing Cleveland Center
Sun 06:34:21 AM 42.6175 -77.8122 273° West 405 466 24,500 738 Climbing Cleveland Center
Sun 06:35:22 AM 42.6256 -77.9950 273° West 404 465 25,300 689 Climbing Cleveland Center
Sun 06:36:23 AM 42.6317 -78.1489 273° West 405 466 25,900 595 Climbing Cleveland Center
Sun 06:37:23 AM 42.6369 -78.3061 273° West 413 475 26,500 595 Climbing Cleveland Center
Sun 06:38:24 AM 42.6422 -78.4619 273° West 413 475 27,100 541 Climbing Cleveland Center
Sun 06:39:25 AM 42.6492 -78.6200 273° West 419 482 27,600 443 Climbing Cleveland Center
Sun 06:40:26 AM 42.6544 -78.7775 273° West 420 483 28,000 197 Climbing Cleveland Center
Sun 06:41:27 AM 42.6597 -78.9406 273° West 432 497 28,000  Level Cleveland Center
Sun 06:42:28 AM 42.6644 -79.1050 272° West 435 501 28,000  Level Cleveland Center
Sun 06:43:29 AM 42.6689 -79.2717 272° West 440 506 28,000  Level Cleveland Center
Sun 06:44:30 AM 42.6742 -79.4411 272° West 450 518 28,000  Level Cleveland Center
Sun 06:45:30 AM 42.6792 -79.6106 272° West 450 518 28,000  Level Cleveland Center
Sun 06:46:31 AM 42.6833 -79.7803 272° West 450 518 28,000  Level Cleveland Center
Sun 06:47:32 AM 42.6875 -79.9497 272° West 450 518 28,000  Level Cleveland Center
Sun 06:48:33 AM 42.6903 -80.1486 271° West 449 517 28,000  Level Cleveland Center
Sun 06:49:34 AM 42.6942 -80.3192 272° West 449 517 28,000  Level Cleveland Center
Sun 06:50:35 AM 42.6981 -80.4897 272° West 449 517 28,000  Level Cleveland Center
Sun 06:51:37 AM 42.7011 -80.6600 271° West 450 518 28,000  Level Cleveland Center
Sun 06:52:37 AM 42.7056 -80.8336 272° West 452 520 28,000 -248 Level Cleveland Center
Sun 06:53:38 AM 42.6928 -81.0053 264° West 453 521 27,500 -984 Descending Cleveland Center
Sun 06:54:39 AM 42.6731 -81.1789 261° West 460 529 26,000 -1,525 Descending Cleveland Center
Sun 06:55:40 AM 42.6519 -81.3542 261° West 465 535 24,400 -1,623 Descending Cleveland Center
Sun 06:56:41 AM 42.6331 -81.5253 262° West 459 528 22,700 -1,623 Descending Cleveland Center
Sun 06:57:42 AM 42.6133 -81.6878 261° West 438 504 21,100 -1,623 Descending Cleveland Center
Sun 06:58:43 AM 42.5933 -81.8553 261° West 421 484 19,400 -1,623 Descending Cleveland Center
Sun 06:59:44 AM 42.5750 -82.0083 261° West 416 479 17,800 -1,525 Descending Cleveland Center
Sun 07:00:45 AM 42.5558 -82.1572 260° West 408 470 16,300 -1,481 Descending Cleveland Center
Sun 07:01:05 AM 42.5481 -82.2064 258° West 402 463 15,800 -1,548 Descending Cleveland Center
Sun 07:01:47 AM 42.5381 -82.3042 262° West 401 461 14,700 -1,770 Descending Cleveland Center
Sun 07:02:06 AM 42.5292 -82.3625 258° West 393 452 14,000 -1,574 Descending Cleveland Center
Sun 07:02:48 AM 42.5206 -82.4478 262° West 394 453 13,100 -1,574 Descending Cleveland Center
Sun 07:03:07 AM 42.5128 -82.5075 260° West 386 444 12,400 -1,475 Descending Cleveland Center
Sun 07:03:49 AM 42.4964 -82.5875 254° West 384 442 11,600 -1,400 Descending Cleveland Center
Sun 07:04:07 AM 42.4767 -82.6331 240° Southwest 337 388 11,000 -1,377 Descending Cleveland Center
Sun 07:04:50 AM 42.4536 -82.6967 244° Southwest 339 390 10,200 -1,180 Descending Cleveland Center
Sun 07:05:08 AM 42.4417 -82.7386 249° West 288 331 9,800 -1,082 Descending Cleveland Center
Sun 07:05:51 AM 42.4369 -82.7944 263° West 279 321 9,100 -1,377 Descending Cleveland Center
Sun 07:06:09 AM 42.4322 -82.8419 262° West 264 304 8,400 -1,574 Descending Cleveland Center
Sun 07:06:52 AM 42.4294 -82.8944 266° West 270 311 7,500 -1,574 Descending Cleveland Center
Sun 07:07:10 AM 42.4208 -82.9394 255° West 262 302 6,800 -1,180 Descending Cleveland Center
Sun 07:07:53 AM 42.4119 -82.9872 256° West 262 302 6,300 -716 Descending Cleveland Center
Sun 07:08:17 AM 42.3989 -83.0383 251° West 257 296 6,000 -787 Descending Cleveland Center
Sun 07:08:54 AM 42.3850 -83.0953 252° West 257 296 5,500 -885 Descending Cleveland Center
Sun 07:09:18 AM 42.3756 -83.1256 247° West 251 289 5,100 -1,161 Descending Cleveland Center
Sun 07:09:56 AM 42.3633 -83.1781 253° West 242 278 4,300 -1,400 Descending Cleveland Center
Sun 07:10:18 AM 42.3486 -83.2036 232° Southwest 198 228 3,700 -1,180 Descending Cleveland Center
Sun 07:10:57 AM 42.3339 -83.2369 239° Southwest 196 226 3,100 -716 Descending Cleveland Center
Sun 07:11:25 AM 42.3169 -83.2614 227° Southwest 172 198 2,900 -689 Descending Cleveland Center
Sun 07:11:58 AM 42.2978 -83.2767 211° Southwest 180 207 2,400 -982 Descending Cleveland Center
Sun 07:12:20 AM 42.2792 -83.2900 208° Southwest 163 188 2,000 -787 Descending Cleveland Center
Sun 07:12:59 AM 42.2611 -83.3042 210° Southwest 152 175 1,600 -689 Descending Cleveland Center
Sun 07:13:21 AM 42.2481 -83.3139 209° Southwest 124 143 1,300 -581 Descending Cleveland Center
Sun 07:14:01 AM 42.2308 -83.3261 208° Southwest 127 146 1,000 -450 Descending Cleveland Center
Sun 07:16:00 AM 42.2124 -83.3534 236° Southwest  Level Estimated
Sun 07:23:00 AM 42.2124 -83.3534 236° Southwest  Level Estimated

Login

Don't have an account? Register now (free) for customized features, flight alerts, and more!